createdAt,value
2018-01-22T00:01:25.980Z,0.46
2018-01-22T00:03:54.812Z,0.41
2018-01-22T00:06:23.542Z,0.49
2018-01-22T00:08:52.417Z,0.48
2018-01-22T00:11:21.151Z,0.48
2018-01-22T00:13:50.185Z,0.56
2018-01-22T00:16:18.896Z,0.37
2018-01-22T00:19:46.712Z,0.36
2018-01-22T00:22:16.523Z,0.32
2018-01-22T00:24:45.340Z,0.36
2018-01-22T00:27:14.261Z,0.42
2018-01-22T00:29:42.984Z,0.39
2018-01-22T00:32:11.724Z,0.43
2018-01-22T00:34:40.787Z,0.44
2018-01-22T00:37:11.050Z,0.50
2018-01-22T00:39:40.159Z,0.49
2018-01-22T00:42:09.040Z,0.51
2018-01-22T00:44:37.781Z,0.39
2018-01-22T00:47:06.612Z,0.38
2018-01-22T00:49:35.302Z,0.30
2018-01-22T00:52:04.189Z,0.41
2018-01-22T00:54:32.949Z,0.31
2018-01-22T00:57:01.829Z,0.37
2018-01-22T00:59:30.628Z,0.32
2018-01-22T01:01:59.544Z,0.35
2018-01-22T01:04:28.437Z,0.45
2018-01-22T01:06:57.191Z,0.42
2018-01-22T01:09:25.992Z,0.37
2018-01-22T01:11:54.544Z,0.35
2018-01-22T01:14:23.363Z,0.41
2018-01-22T01:16:51.872Z,0.37
2018-01-22T01:19:20.936Z,0.41
2018-01-22T01:21:49.665Z,0.34
2018-01-22T01:24:18.507Z,0.29
2018-01-22T01:26:47.224Z,0.27
2018-01-22T01:29:16.072Z,0.26
2018-01-22T01:31:44.796Z,0.31
2018-01-22T01:34:13.664Z,0.26
2018-01-22T01:36:42.757Z,0.39
2018-01-22T01:39:11.453Z,0.39
2018-01-22T01:41:40.357Z,0.41
2018-01-22T01:44:09.213Z,0.39
2018-01-22T01:46:37.938Z,0.36
2018-01-22T01:49:06.908Z,0.38
2018-01-22T01:51:35.684Z,0.33
2018-01-22T01:54:04.369Z,0.40
2018-01-22T01:56:33.497Z,0.40
2018-01-22T01:59:02.017Z,0.42
2018-01-22T02:01:30.868Z,0.40
2018-01-22T02:03:59.608Z,0.30
2018-01-22T02:06:28.528Z,0.41
2018-01-22T02:08:58.364Z,0.35
2018-01-22T02:11:26.897Z,0.40
2018-01-22T02:13:55.528Z,0.28
2018-01-22T02:16:24.244Z,0.35
2018-01-22T02:18:53.060Z,0.32
2018-01-22T02:21:21.699Z,0.28
2018-01-22T02:23:50.487Z,0.12
2018-01-22T02:26:19.186Z,0.11
2018-01-22T02:28:47.856Z,0.08
2018-01-22T02:31:16.750Z,0.12
2018-01-22T02:33:45.596Z,0.12
2018-01-22T02:36:14.132Z,0.04
2018-01-22T02:38:42.831Z,0.07
2018-01-22T02:41:11.517Z,0.09
2018-01-22T02:43:40.330Z,0.12
2018-01-22T02:46:11.921Z,0.08
2018-01-22T02:48:40.772Z,0.18
2018-01-22T02:51:09.398Z,0.22
2018-01-22T02:53:38.006Z,0.10
2018-01-22T02:56:06.715Z,0.16
2018-01-22T02:58:35.516Z,0.09
2018-01-22T03:01:04.240Z,0.17
2018-01-22T03:03:33.113Z,0.23
2018-01-22T03:06:01.904Z,0.19
2018-01-22T03:08:30.587Z,0.19
2018-01-22T03:10:59.125Z,0.08
2018-01-22T03:13:27.740Z,0.16
2018-01-22T03:15:56.463Z,0.27
2018-01-22T03:18:25.189Z,0.33
2018-01-22T03:20:54.033Z,0.19
2018-01-22T03:23:22.912Z,0.18
2018-01-22T03:25:52.040Z,0.24
2018-01-22T03:28:20.924Z,0.25
2018-01-22T03:30:49.691Z,0.28
2018-01-22T03:33:18.570Z,0.26
2018-01-22T03:35:47.220Z,0.27
2018-01-22T03:38:15.865Z,0.31
2018-01-22T03:40:44.612Z,0.27
2018-01-22T03:43:13.389Z,0.27
2018-01-22T03:45:41.931Z,0.23
2018-01-22T03:48:10.591Z,0.34
2018-01-22T03:50:39.280Z,0.28
2018-01-22T03:53:07.973Z,0.36
2018-01-22T03:55:36.857Z,0.33
2018-01-22T03:58:05.713Z,0.32
2018-01-22T04:00:34.668Z,0.30
2018-01-22T04:03:03.578Z,0.33
2018-01-22T04:05:32.280Z,0.27
2018-01-22T04:08:01.073Z,0.27
2018-01-22T04:10:29.804Z,0.29
2018-01-22T04:12:58.683Z,0.34
2018-01-22T04:15:27.369Z,0.40
2018-01-22T04:17:56.080Z,0.31
2018-01-22T04:20:24.945Z,0.35
2018-01-22T04:22:53.817Z,0.27
2018-01-22T04:25:22.745Z,0.27
2018-01-22T04:27:52.004Z,0.33
2018-01-22T04:30:20.540Z,0.26
2018-01-22T04:32:49.152Z,0.35
2018-01-22T04:35:17.840Z,0.39
2018-01-22T04:37:46.539Z,0.31
2018-01-22T04:40:15.204Z,0.30
2018-01-22T04:42:44.004Z,0.05
2018-01-22T04:45:12.872Z,-0.01
2018-01-22T04:47:41.606Z,0.09
2018-01-22T04:50:10.506Z,0.25
2018-01-22T04:52:39.205Z,0.01
2018-01-22T04:55:08.101Z,0.17
2018-01-22T04:57:36.754Z,0.24
2018-01-22T05:03:19.749Z,-0.09
2018-01-22T05:05:48.322Z,0.10
2018-01-22T05:08:16.842Z,0.20
2018-01-22T05:10:45.497Z,0.09
2018-01-22T05:13:14.275Z,0.13
2018-01-22T05:15:43.777Z,0.00
2018-01-22T05:18:12.469Z,0.04
2018-01-22T05:20:41.252Z,0.01
2018-01-22T05:23:09.920Z,0.12
2018-01-22T05:25:38.569Z,0.17
2018-01-22T05:28:07.142Z,0.04
2018-01-22T05:30:35.894Z,0.26
2018-01-22T05:33:04.640Z,0.07
2018-01-22T05:35:33.374Z,0.26
2018-01-22T05:38:02.033Z,0.19
2018-01-22T05:40:30.716Z,0.21
2018-01-22T05:42:59.372Z,0.34
2018-01-22T05:45:27.915Z,0.17
2018-01-22T05:47:56.664Z,0.43
2018-01-22T05:50:25.287Z,0.23
2018-01-22T05:52:54.090Z,0.30
2018-01-22T05:55:22.838Z,0.37
2018-01-22T05:57:52.017Z,0.32
2018-01-22T06:00:21.646Z,0.38
2018-01-22T06:02:50.244Z,0.15
2018-01-22T06:05:18.844Z,0.24
2018-01-22T06:07:50.838Z,0.35
2018-01-22T06:10:19.870Z,0.29
2018-01-22T06:12:48.421Z,0.32
2018-01-22T06:15:17.168Z,0.41
2018-01-22T06:17:46.160Z,0.45
2018-01-22T06:20:14.820Z,0.23
2018-01-22T06:22:43.437Z,0.41
2018-01-22T06:25:12.448Z,0.20
2018-01-22T06:27:41.004Z,0.26
2018-01-22T06:30:09.741Z,0.28
2018-01-22T06:32:38.372Z,0.24
2018-01-22T06:35:07.162Z,0.10
2018-01-22T06:37:36.159Z,0.06
2018-01-22T06:40:04.760Z,0.18
2018-01-22T06:42:33.475Z,0.11
2018-01-22T06:45:02.013Z,0.05
2018-01-22T06:47:30.758Z,0.11
2018-01-22T06:49:59.714Z,0.00
2018-01-22T06:52:28.455Z,-0.12
2018-01-22T06:54:57.071Z,0.08
2018-01-22T06:57:25.589Z,-0.03
2018-01-22T06:59:54.160Z,0.14
2018-01-22T07:02:22.716Z,0.10
2018-01-22T07:04:51.329Z,0.19
2018-01-22T07:07:20.303Z,0.19
2018-01-22T07:09:48.880Z,0.21
2018-01-22T07:12:17.429Z,0.26
2018-01-22T07:14:46.366Z,0.26
2018-01-22T07:17:14.946Z,0.31
2018-01-22T07:19:43.432Z,0.40
2018-01-22T07:22:12.185Z,0.54
2018-01-22T07:24:40.876Z,0.50
2018-01-22T07:27:09.492Z,0.44
2018-01-22T07:29:38.185Z,0.51
2018-01-22T07:32:07.145Z,0.54
2018-01-22T07:34:35.935Z,0.51
2018-01-22T07:37:04.657Z,0.57
2018-01-22T07:39:33.176Z,0.45
2018-01-22T07:42:02.069Z,0.38
2018-01-22T07:44:30.973Z,0.50
2018-01-22T07:46:59.789Z,0.61
2018-01-22T07:49:28.249Z,0.64
2018-01-22T07:51:56.829Z,0.57
2018-01-22T07:54:26.289Z,0.54
2018-01-22T07:56:55.702Z,0.64
2018-01-22T07:59:24.515Z,0.59
2018-01-22T08:01:53.533Z,0.63
2018-01-22T08:04:23.608Z,0.66
2018-01-22T08:06:52.527Z,0.67
2018-01-22T08:09:21.168Z,0.55
2018-01-22T08:11:49.733Z,0.61
2018-01-22T08:14:18.280Z,0.71
2018-01-22T08:16:47.050Z,0.59
2018-01-22T08:19:15.617Z,0.73
2018-01-22T08:21:44.149Z,0.64
2018-01-22T08:24:12.645Z,0.58
2018-01-22T08:26:41.320Z,0.64
2018-01-22T08:29:10.460Z,0.73
2018-01-22T08:31:39.200Z,0.79
2018-01-22T08:34:08.875Z,0.87
2018-01-22T08:36:37.572Z,0.88
2018-01-22T08:39:06.520Z,1.05
2018-01-22T08:41:35.455Z,0.98
2018-01-22T08:44:04.442Z,1.06
2018-01-22T08:46:33.496Z,1.11
2018-01-22T08:49:03.169Z,1.07
2018-01-22T08:51:33.353Z,1.17
2018-01-22T08:54:02.074Z,1.18
2018-01-22T08:56:31.214Z,1.14
2018-01-22T08:58:59.912Z,1.17
2018-01-22T09:01:28.414Z,1.34
2018-01-22T09:03:57.023Z,1.42
2018-01-22T09:06:25.676Z,1.19
2018-01-22T09:08:54.425Z,1.39
2018-01-22T09:11:23.189Z,1.39
2018-01-22T09:13:52.180Z,1.37
2018-01-22T09:16:27.399Z,1.53
2018-01-22T09:18:56.143Z,1.72
2018-01-22T09:21:26.033Z,1.74
2018-01-22T09:23:54.579Z,1.85
2018-01-22T09:26:23.101Z,1.77
2018-01-22T09:28:51.675Z,1.86
2018-01-22T09:31:20.221Z,2.00
2018-01-22T09:33:48.745Z,1.83
2018-01-22T09:36:18.480Z,1.98
2018-01-22T09:38:47.237Z,2.00
2018-01-22T09:41:16.020Z,2.14
2018-01-22T09:43:44.792Z,2.31
2018-01-22T09:46:13.595Z,2.09
2018-01-22T09:48:42.629Z,2.01
2018-01-22T09:51:11.454Z,2.01
2018-01-22T09:53:40.189Z,2.21
2018-01-22T09:56:08.847Z,1.97
2018-01-22T09:58:37.426Z,2.13
2018-01-22T10:01:06.613Z,2.15
2018-01-22T10:03:35.348Z,2.12
2018-01-22T10:06:03.985Z,2.03
2018-01-22T10:08:33.495Z,2.31
2018-01-22T10:11:02.228Z,2.20
2018-01-22T10:13:30.854Z,1.90
2018-01-22T10:15:59.560Z,1.94
2018-01-22T10:18:28.129Z,2.10
2018-01-22T10:20:56.729Z,2.16
2018-01-22T10:23:25.557Z,1.90
2018-01-22T10:25:54.474Z,2.01
2018-01-22T10:28:23.454Z,1.92
2018-01-22T10:30:52.270Z,2.07
2018-01-22T10:33:21.173Z,2.20
2018-01-22T10:35:50.205Z,2.01
2018-01-22T10:38:19.371Z,2.18
2018-01-22T10:40:48.608Z,2.14
2018-01-22T10:43:17.223Z,2.13
2018-01-22T10:45:46.035Z,1.92
2018-01-22T10:48:14.616Z,2.22
2018-01-22T10:50:43.397Z,2.44
2018-01-22T10:53:12.231Z,2.45
2018-01-22T10:55:41.024Z,2.48
2018-01-22T10:58:09.574Z,2.38
2018-01-22T11:00:38.348Z,2.36
2018-01-22T11:03:07.011Z,2.17
2018-01-22T11:05:35.846Z,2.23
2018-01-22T11:08:04.652Z,2.16
2018-01-22T11:10:33.326Z,2.39
2018-01-22T11:13:01.780Z,2.34
2018-01-22T11:15:34.859Z,2.36
2018-01-22T11:18:03.483Z,2.33
2018-01-22T11:20:32.446Z,2.58
2018-01-22T11:23:01.336Z,2.72
2018-01-22T11:25:29.829Z,2.80
2018-01-22T11:27:58.472Z,2.58
2018-01-22T11:30:27.340Z,2.57
2018-01-22T11:32:59.346Z,2.89
2018-01-22T11:35:28.609Z,2.69
2018-01-22T11:37:58.748Z,2.55
2018-01-22T11:40:27.447Z,2.74
2018-01-22T11:42:56.224Z,2.78
2018-01-22T11:45:25.360Z,2.92
2018-01-22T11:47:54.261Z,2.80
2018-01-22T11:50:23.174Z,2.85
2018-01-22T11:52:52.737Z,2.71
2018-01-22T11:55:21.406Z,2.71
2018-01-22T11:57:50.098Z,2.71
2018-01-22T12:00:18.707Z,2.85
2018-01-22T12:02:47.582Z,3.20
2018-01-22T12:05:16.615Z,2.82
2018-01-22T12:07:45.443Z,2.74
2018-01-22T12:10:14.504Z,2.56
2018-01-22T12:12:42.984Z,2.53
2018-01-22T12:15:12.755Z,2.64
2018-01-22T12:17:42.042Z,2.71
2018-01-22T12:20:10.643Z,2.70
2018-01-22T12:22:39.330Z,2.60
2018-01-22T12:25:07.839Z,2.54
2018-01-22T12:27:36.755Z,2.57
2018-01-22T12:30:05.498Z,2.79
2018-01-22T12:32:34.038Z,2.72
2018-01-22T12:35:02.735Z,2.70
2018-01-22T12:37:31.786Z,2.63
2018-01-22T12:40:00.935Z,2.63
2018-01-22T12:42:29.810Z,2.75
2018-01-22T12:44:58.585Z,2.46
2018-01-22T12:47:27.625Z,2.66
2018-01-22T12:49:56.500Z,2.55
2018-01-22T12:52:25.168Z,2.63
2018-01-22T12:54:53.980Z,2.57
2018-01-22T12:57:22.571Z,2.83
2018-01-22T12:59:51.188Z,2.67
2018-01-22T13:02:20.520Z,2.76
2018-01-22T13:04:49.302Z,2.64
2018-01-22T13:07:18.609Z,2.76
2018-01-22T13:09:47.353Z,2.83
2018-01-22T13:12:15.962Z,2.83
2018-01-22T13:14:44.757Z,2.64
2018-01-22T13:17:13.693Z,2.81
2018-01-22T13:19:42.228Z,2.74
2018-01-22T13:22:10.883Z,2.46
2018-01-22T13:24:39.777Z,2.50
2018-01-22T13:27:08.760Z,2.72
2018-01-22T13:29:37.373Z,2.64
2018-01-22T13:32:06.178Z,2.43
2018-01-22T13:34:34.716Z,2.47
2018-01-22T13:37:03.535Z,2.84
2018-01-22T13:39:32.304Z,2.58
2018-01-22T13:42:01.004Z,2.54
2018-01-22T13:44:29.611Z,2.59
2018-01-22T13:46:58.453Z,2.63
2018-01-22T13:49:27.721Z,2.62
2018-01-22T13:51:56.986Z,2.63
2018-01-22T13:54:25.704Z,2.56
2018-01-22T13:56:54.393Z,2.41
2018-01-22T13:59:22.999Z,2.46
2018-01-22T14:01:52.052Z,2.39
2018-01-22T14:04:23.776Z,2.43
2018-01-22T14:06:53.812Z,2.36
2018-01-22T14:09:22.419Z,2.38
2018-01-22T14:11:51.043Z,2.40
2018-01-22T14:14:19.544Z,2.13
2018-01-22T14:16:48.665Z,2.29
2018-01-22T14:19:17.173Z,2.35
2018-01-22T14:21:45.807Z,2.23
2018-01-22T14:24:14.497Z,2.24
2018-01-22T14:26:43.735Z,2.24
2018-01-22T14:29:12.471Z,2.33
2018-01-22T14:31:41.206Z,2.31
2018-01-22T14:34:09.864Z,2.27
2018-01-22T14:36:38.669Z,2.06
2018-01-22T14:39:07.296Z,2.15
2018-01-22T14:41:35.998Z,2.23
2018-01-22T14:44:04.704Z,2.11
2018-01-22T14:46:33.501Z,2.22
2018-01-22T14:49:02.019Z,2.16
2018-01-22T14:51:30.765Z,2.18
2018-01-22T14:53:59.760Z,2.04
2018-01-22T14:56:30.696Z,2.07
2018-01-22T14:58:59.574Z,2.05
2018-01-22T15:01:28.512Z,1.88
2018-01-22T15:03:57.108Z,1.86
2018-01-22T15:06:25.679Z,1.74
2018-01-22T15:08:54.300Z,1.66
2018-01-22T15:11:23.050Z,1.66
2018-01-22T15:13:51.886Z,1.54
2018-01-22T15:16:20.532Z,1.38
2018-01-22T15:18:49.028Z,1.47
2018-01-22T15:21:17.635Z,1.49
2018-01-22T15:23:46.158Z,1.41
2018-01-22T15:26:14.809Z,1.43
2018-01-22T15:28:43.616Z,1.53
2018-01-22T15:31:13.749Z,1.47
2018-01-22T15:33:42.374Z,1.47
2018-01-22T15:36:10.956Z,1.53
2018-01-22T15:38:39.800Z,1.43
2018-01-22T15:41:09.213Z,1.42
2018-01-22T15:43:38.616Z,1.40
2018-01-22T15:46:08.360Z,1.32
2018-01-22T15:48:37.180Z,1.41
2018-01-22T15:51:05.821Z,1.37
2018-01-22T15:53:34.931Z,1.43
2018-01-22T15:56:03.884Z,1.28
2018-01-22T15:58:32.752Z,1.42
2018-01-22T16:01:02.620Z,1.23
2018-01-22T16:03:31.818Z,1.31
2018-01-22T16:06:01.349Z,1.31
2018-01-22T16:08:29.931Z,1.47
2018-01-22T16:10:58.936Z,1.36
2018-01-22T16:13:27.654Z,1.35
2018-01-22T16:15:56.390Z,1.42
2018-01-22T16:18:25.300Z,1.44
2018-01-22T16:20:54.040Z,1.42
2018-01-22T16:23:22.651Z,1.44
2018-01-22T16:25:51.468Z,1.45
2018-01-22T16:28:20.184Z,1.39
2018-01-22T16:30:48.897Z,1.20
2018-01-22T16:33:17.747Z,1.28
2018-01-22T16:35:46.477Z,1.26
2018-01-22T16:38:15.256Z,1.12
2018-01-22T16:40:44.360Z,1.00
2018-01-22T16:43:13.115Z,0.92
2018-01-22T16:45:41.793Z,0.79
2018-01-22T16:48:10.315Z,0.90
2018-01-22T16:50:39.277Z,0.95
2018-01-22T16:53:07.873Z,0.80
2018-01-22T16:55:36.403Z,0.80
2018-01-22T16:58:05.042Z,0.87
2018-01-22T17:00:33.600Z,0.84
2018-01-22T17:03:02.686Z,0.72
2018-01-22T17:05:31.370Z,0.60
2018-01-22T17:08:00.075Z,0.75
2018-01-22T17:10:28.948Z,0.79
2018-01-22T17:12:57.777Z,0.87
2018-01-22T17:15:26.371Z,0.84
2018-01-22T17:17:54.924Z,0.67
2018-01-22T17:20:29.943Z,0.67
2018-01-22T17:22:58.543Z,0.67
2018-01-22T17:25:27.174Z,0.56
2018-01-22T17:27:56.721Z,0.67
2018-01-22T17:30:26.124Z,0.56
2018-01-22T17:32:54.848Z,0.61
2018-01-22T17:35:23.788Z,0.48
2018-01-22T17:37:52.957Z,0.57
2018-01-22T17:40:22.002Z,0.72
2018-01-22T17:42:50.536Z,0.44
2018-01-22T17:45:19.813Z,0.54
2018-01-22T17:47:48.955Z,0.53
2018-01-22T17:50:18.353Z,0.35
2018-01-22T17:52:47.025Z,0.34
2018-01-22T17:55:15.748Z,0.61
2018-01-22T17:57:44.476Z,0.68
2018-01-22T18:00:13.169Z,0.53
2018-01-22T18:02:42.116Z,0.45
2018-01-22T18:05:20.937Z,0.49
2018-01-22T18:07:49.711Z,0.67
2018-01-22T18:10:21.559Z,0.73
2018-01-22T18:12:50.403Z,0.51
2018-01-22T18:15:18.947Z,0.58
2018-01-22T18:17:47.613Z,0.40
2018-01-22T18:20:16.448Z,0.36
2018-01-22T18:22:44.900Z,0.25
2018-01-22T18:25:13.517Z,0.31
2018-01-22T18:27:42.571Z,0.45
2018-01-22T18:30:11.577Z,0.66
2018-01-22T18:32:40.253Z,0.62
2018-01-22T18:35:08.793Z,0.46
2018-01-22T18:37:38.255Z,0.33
2018-01-22T18:40:07.047Z,0.50
2018-01-22T18:42:35.656Z,0.57
2018-01-22T18:45:04.418Z,0.33
2018-01-22T18:47:33.204Z,0.56
2018-01-22T18:50:01.970Z,0.51
2018-01-22T18:52:30.562Z,0.54
2018-01-22T18:54:59.057Z,0.46
2018-01-22T18:57:27.820Z,0.36
2018-01-22T18:59:56.418Z,0.48
2018-01-22T19:02:25.191Z,0.31
2018-01-22T19:04:53.702Z,0.59
2018-01-22T19:07:22.594Z,0.54
2018-01-22T19:09:51.184Z,0.46
2018-01-22T19:12:19.724Z,0.44
2018-01-22T19:14:48.345Z,0.32
2018-01-22T19:17:16.900Z,0.15
2018-01-22T19:19:45.376Z,0.32
2018-01-22T19:22:14.072Z,0.46
2018-01-22T19:24:42.784Z,0.35
2018-01-22T19:27:11.476Z,0.49
2018-01-22T19:29:40.320Z,0.18
2018-01-22T19:32:09.341Z,0.20
2018-01-22T19:34:38.116Z,0.21
2018-01-22T19:37:06.749Z,0.30
2018-01-22T19:39:35.258Z,0.29
2018-01-22T19:42:04.319Z,0.15
2018-01-22T19:44:32.917Z,0.09
2018-01-22T19:47:01.572Z,0.21
2018-01-22T19:49:30.258Z,0.15
2018-01-22T19:51:58.917Z,0.14
2018-01-22T19:54:27.790Z,0.07
2018-01-22T19:57:01.523Z,0.12
2018-01-22T19:59:33.507Z,0.14
2018-01-22T20:02:03.142Z,0.14
2018-01-22T20:04:32.264Z,0.12
2018-01-22T20:07:01.059Z,0.46
2018-01-22T20:09:29.857Z,0.57
2018-01-22T20:11:59.348Z,0.33
2018-01-22T20:14:28.090Z,0.54
2018-01-22T20:16:56.715Z,0.26
2018-01-22T20:19:25.392Z,0.39
2018-01-22T20:21:54.545Z,0.34
2018-01-22T20:24:23.212Z,0.34
2018-01-22T20:26:52.076Z,0.47
2018-01-22T20:29:21.168Z,0.15
2018-01-22T20:31:49.803Z,0.25
2018-01-22T20:34:18.965Z,0.14
2018-01-22T20:36:47.616Z,0.26
2018-01-22T20:39:16.195Z,0.12
2018-01-22T20:41:44.836Z,0.28
2018-01-22T20:44:13.569Z,0.38
2018-01-22T20:46:42.200Z,0.61
2018-01-22T20:49:11.080Z,0.54
2018-01-22T20:51:39.897Z,0.28
2018-01-22T20:54:08.853Z,0.37
2018-01-22T20:56:37.769Z,0.29
2018-01-22T20:59:06.837Z,0.30
2018-01-22T21:01:35.522Z,0.33
2018-01-22T21:04:04.601Z,0.34
2018-01-22T21:06:33.328Z,0.28
2018-01-22T21:09:05.537Z,0.36
2018-01-22T21:11:34.114Z,0.60
2018-01-22T21:14:02.926Z,0.43
2018-01-22T21:16:31.598Z,0.34
2018-01-22T21:19:00.195Z,0.31
2018-01-22T21:21:29.006Z,0.59
2018-01-22T21:23:57.551Z,0.55
2018-01-22T21:26:26.392Z,0.28
2018-01-22T21:28:54.990Z,0.46
2018-01-22T21:31:23.588Z,0.38
2018-01-22T21:33:52.285Z,0.53
2018-01-22T21:36:21.011Z,0.81
2018-01-22T21:38:49.559Z,0.59
2018-01-22T21:41:18.586Z,0.46
2018-01-22T21:43:48.238Z,0.36
2018-01-22T21:46:16.812Z,0.31
2018-01-22T21:48:45.580Z,0.43
2018-01-22T21:51:14.244Z,0.60
2018-01-22T21:53:42.876Z,0.63
2018-01-22T21:56:11.712Z,0.68
2018-01-22T21:58:40.501Z,0.44
2018-01-22T22:01:09.393Z,0.52
2018-01-22T22:03:39.725Z,0.46
2018-01-22T22:06:08.515Z,0.59
2018-01-22T22:08:37.194Z,0.48
2018-01-22T22:11:05.740Z,0.36
2018-01-22T22:13:35.456Z,0.37
2018-01-22T22:16:04.208Z,0.39
2018-01-22T22:18:33.085Z,0.35
2018-01-22T22:21:01.816Z,0.36
2018-01-22T22:23:30.380Z,0.37
2018-01-22T22:25:59.165Z,0.46
2018-01-22T22:28:28.152Z,0.42
2018-01-22T22:30:56.926Z,0.34
2018-01-22T22:33:25.595Z,0.38
2018-01-22T22:35:54.220Z,0.32
2018-01-22T22:38:22.797Z,0.40
2018-01-22T22:40:51.546Z,0.44
2018-01-22T22:43:20.337Z,0.47
2018-01-22T22:45:49.469Z,0.33
2018-01-22T22:48:17.987Z,0.50
2018-01-22T22:50:46.624Z,0.46
2018-01-22T22:53:15.146Z,0.39
2018-01-22T22:55:43.749Z,0.75
2018-01-22T22:58:12.370Z,0.60
2018-01-22T23:00:42.247Z,0.46
2018-01-22T23:03:10.739Z,0.36
2018-01-22T23:05:39.544Z,0.36
2018-01-22T23:08:08.077Z,0.41
2018-01-22T23:10:36.912Z,0.44
2018-01-22T23:13:05.684Z,0.38
2018-01-22T23:15:34.444Z,0.62
2018-01-22T23:18:03.207Z,0.72
2018-01-22T23:20:31.936Z,0.83
2018-01-22T23:23:00.485Z,0.85
2018-01-22T23:25:29.325Z,0.53
2018-01-22T23:27:57.966Z,0.54
2018-01-22T23:30:26.618Z,0.71
2018-01-22T23:32:55.485Z,0.78
2018-01-22T23:35:24.545Z,0.63
2018-01-22T23:37:53.348Z,0.89
2018-01-22T23:40:21.913Z,0.68
2018-01-22T23:42:50.956Z,0.50
2018-01-22T23:45:19.540Z,0.54
2018-01-22T23:47:48.097Z,0.54
2018-01-22T23:50:16.755Z,0.83
2018-01-22T23:52:45.562Z,0.75
2018-01-22T23:55:14.357Z,0.91
2018-01-22T23:57:42.907Z,0.89
